createdAt,value
2023-01-13T05:13:26.597Z,34.55
2023-01-13T05:25:26.495Z,34.53
2023-01-13T05:26:26.550Z,34.52
2023-01-13T05:27:26.458Z,34.53
2023-01-13T05:28:26.452Z,34.55
2023-01-13T05:29:26.447Z,34.53
2023-01-13T05:30:26.425Z,34.53
2023-01-13T05:31:26.445Z,34.52
2023-01-13T05:32:26.415Z,34.52
2023-01-13T05:33:26.401Z,34.53
2023-01-13T05:34:26.395Z,34.50
2023-01-13T05:35:26.390Z,34.51
2023-01-13T05:36:26.368Z,34.54
2023-01-13T05:37:26.361Z,34.52
2023-01-13T05:38:26.356Z,34.52
2023-01-13T05:39:26.343Z,34.52
2023-01-13T05:40:26.343Z,34.49
2023-01-13T05:41:26.320Z,34.53
2023-01-13T05:42:26.354Z,34.51
2023-01-13T05:43:26.304Z,34.51
2023-01-13T05:44:26.292Z,34.52
2023-01-13T05:45:26.281Z,34.51
2023-01-13T05:46:26.309Z,34.50
2023-01-13T05:47:26.265Z,34.52
2023-01-13T05:48:26.257Z,34.49
2023-01-13T05:49:27.208Z,34.51
2023-01-13T05:50:26.233Z,34.51
2023-01-13T05:51:26.460Z,34.51
2023-01-13T05:52:26.218Z,34.52
2023-01-13T05:53:26.214Z,34.51
2023-01-13T05:54:26.196Z,34.54
2023-01-13T05:55:26.186Z,34.53
2023-01-13T05:56:26.184Z,34.50
2023-01-13T05:57:26.168Z,34.54
2023-01-13T05:58:26.189Z,34.50
2023-01-13T05:59:26.161Z,34.54
2023-01-13T06:00:26.148Z,34.52
2023-01-13T06:01:26.285Z,34.50
2023-01-13T06:02:26.121Z,34.52
2023-01-13T06:03:26.111Z,34.50
2023-01-13T06:04:26.132Z,34.49
2023-01-13T06:05:26.099Z,34.51
2023-01-13T06:06:26.083Z,34.52
2023-01-13T06:07:26.077Z,34.47
2023-01-13T06:08:26.104Z,34.43
2023-01-13T06:09:26.052Z,34.35
2023-01-13T06:10:26.046Z,34.15
2023-01-13T06:11:26.075Z,34.03
2023-01-13T06:12:26.023Z,33.90
2023-01-13T06:13:26.011Z,33.77
2023-01-13T06:14:26.042Z,33.69
2023-01-13T06:15:25.997Z,33.63
2023-01-13T06:16:26.006Z,33.64
2023-01-13T06:17:26.217Z,33.73
2023-01-13T06:18:25.971Z,33.88
2023-01-13T06:19:25.962Z,34.03
2023-01-13T06:20:25.968Z,34.08
2023-01-13T06:21:26.216Z,34.23
2023-01-13T06:22:25.938Z,34.28
2023-01-13T06:23:25.936Z,34.31
2023-01-13T06:24:26.222Z,34.33
2023-01-13T06:25:25.905Z,34.39
2023-01-13T06:26:25.909Z,34.43
2023-01-13T06:27:25.881Z,34.43
2023-01-13T06:28:26.223Z,34.47
2023-01-13T06:29:25.871Z,34.52
2023-01-13T06:30:25.909Z,34.55
2023-01-13T06:31:25.855Z,34.61
2023-01-13T06:32:25.840Z,34.62
2023-01-13T06:33:26.229Z,34.63
2023-01-13T06:34:25.817Z,34.66
2023-01-13T06:35:25.812Z,34.64
2023-01-13T06:36:26.226Z,34.68
2023-01-13T06:37:25.789Z,34.66
2023-01-13T06:38:25.794Z,34.72
2023-01-13T06:39:25.767Z,34.75
2023-01-13T06:40:26.909Z,34.80
2023-01-13T06:41:25.751Z,34.79
2023-01-13T06:42:25.741Z,34.80
2023-01-13T06:43:26.223Z,34.79
2023-01-13T06:44:25.727Z,34.80
2023-01-13T06:45:25.717Z,34.82
2023-01-13T06:46:25.868Z,34.82
2023-01-13T06:47:25.692Z,34.84
2023-01-13T06:48:26.484Z,34.84
2023-01-13T06:49:25.676Z,34.90
2023-01-13T06:50:25.671Z,34.91
2023-01-13T06:51:25.654Z,34.94
2023-01-13T06:52:25.729Z,35.21
2023-01-13T06:54:27.701Z,35.40
2023-01-13T06:55:25.800Z,35.47
2023-01-13T06:56:25.604Z,35.54
2023-01-13T06:57:25.603Z,35.53
2023-01-13T06:58:25.742Z,35.53
2023-01-13T06:59:25.579Z,35.80
2023-01-13T07:02:25.703Z,36.02
2023-01-13T07:03:25.729Z,36.13
2023-01-13T07:11:25.738Z,36.40
2023-01-13T07:14:26.467Z,36.51
2023-01-13T07:15:25.817Z,36.47
2023-01-13T07:18:25.820Z,36.69
2023-01-13T07:24:25.799Z,36.82
2023-01-13T07:29:25.740Z,36.94
2023-01-13T07:34:25.774Z,37.09
2023-01-13T08:33:25.731Z,36.77
2023-01-13T09:07:27.612Z,36.52
2023-01-13T10:38:26.763Z,35.66
2023-01-13T10:52:27.063Z,35.10
2023-01-13T11:09:30.711Z,34.76
2023-01-13T11:11:26.457Z,34.71
2023-01-13T22:45:16.719Z,35.55
2023-01-13T22:47:16.698Z,35.54
2023-01-13T22:48:16.685Z,35.54
2023-01-13T22:49:16.678Z,35.52
2023-01-13T22:50:16.687Z,35.54
2023-01-13T22:51:16.676Z,35.56
2023-01-13T22:52:16.651Z,35.56
2023-01-13T22:53:16.641Z,35.49
2023-01-13T22:54:16.638Z,35.52
2023-01-13T22:55:16.631Z,35.51
2023-01-13T22:56:16.615Z,35.48
2023-01-13T22:57:16.608Z,35.53
2023-01-13T22:58:16.595Z,35.52
2023-01-13T22:59:16.607Z,35.53
2023-01-13T23:00:16.572Z,35.52
2023-01-13T23:01:16.697Z,35.50
2023-01-13T23:02:16.592Z,35.50
2023-01-13T23:03:16.543Z,35.51
2023-01-13T23:04:16.700Z,35.50
2023-01-13T23:05:16.524Z,35.50
2023-01-13T23:06:16.516Z,35.51
2023-01-13T23:07:16.512Z,35.53
2023-01-13T23:08:16.494Z,35.52
2023-01-13T23:09:16.490Z,35.49
2023-01-13T23:10:16.478Z,35.50
2023-01-13T23:11:16.468Z,35.51
2023-01-13T23:12:16.459Z,35.50
2023-01-13T23:13:16.447Z,35.53
2023-01-13T23:14:16.438Z,35.52
2023-01-13T23:15:16.428Z,35.49
2023-01-13T23:16:16.426Z,35.52
2023-01-13T23:17:16.413Z,35.52
2023-01-13T23:18:16.422Z,35.52
2023-01-13T23:19:16.442Z,35.52
2023-01-13T23:20:16.382Z,35.51
2023-01-13T23:21:16.374Z,35.51
2023-01-13T23:22:16.365Z,35.52
2023-01-13T23:23:16.355Z,35.51
2023-01-13T23:24:16.342Z,35.52
2023-01-13T23:25:16.338Z,35.51
2023-01-13T23:26:16.325Z,35.48
2023-01-13T23:27:16.313Z,35.49
2023-01-13T23:28:16.312Z,35.52
2023-01-13T23:29:16.299Z,35.50
2023-01-13T23:30:16.285Z,35.50
2023-01-13T23:31:16.323Z,35.49
2023-01-13T23:32:16.280Z,35.49
2023-01-13T23:33:16.270Z,35.50
2023-01-13T23:34:16.269Z,35.50
2023-01-13T23:35:16.260Z,35.48
2023-01-13T23:36:16.232Z,35.47
2023-01-13T23:37:16.220Z,35.50
2023-01-13T23:38:16.209Z,35.47
2023-01-13T23:39:16.206Z,35.47
2023-01-13T23:40:16.221Z,35.48
2023-01-13T23:41:16.210Z,35.50
2023-01-13T23:42:16.172Z,35.49
2023-01-13T23:43:16.160Z,35.50
2023-01-13T23:44:16.157Z,35.49
2023-01-13T23:45:16.140Z,35.49
2023-01-13T23:46:16.142Z,35.49
2023-01-13T23:47:16.121Z,35.49
2023-01-13T23:48:16.113Z,35.51
2023-01-13T23:49:16.107Z,35.51
2023-01-13T23:50:16.120Z,35.50
2023-01-13T23:51:16.084Z,35.51
2023-01-13T23:52:16.085Z,35.49
2023-01-13T23:53:16.063Z,35.49
2023-01-13T23:54:16.054Z,35.49
2023-01-13T23:55:16.054Z,35.51
2023-01-13T23:56:16.048Z,35.51
2023-01-13T23:57:16.026Z,35.49
2023-01-13T23:58:16.013Z,35.50
2023-01-13T23:59:16.011Z,35.50
